Time;durP1;ratioP1;P1;durP2;ratioP2;P2;SDS_P1;SDS_P2;PMS_P1;PMS_P2;Temp;Humidity;BMP_temperature;BMP_pressure;BME280_temperature;BME280_humidity;BME280_pressure;Samples;Min_cycle;Max_cycle;Signal;HPM_P1;HPM_P2
2022/02/13 00:01:10;;;;;;;33.43;16.53;;;;;;;11.63;65.25;100932.41;5032131;28;20132;-75
2022/02/13 00:03:37;;;;;;;36.30;17.17;;;;;;;11.92;65.24;100980.28;5031009;28;20045;-72
2022/02/13 00:06:04;;;;;;;30.57;15.53;;;;;;;11.93;65.49;100983.94;5017930;28;20093;-74
2022/02/13 00:08:31;;;;;;;33.63;17.60;;;;;;;12.08;65.46;100998.78;5027117;28;20084;-78
2022/02/13 00:11:16;;;;;;;34.87;16.70;;;;;;;11.99;65.48;100991.22;5006861;28;20389;-73
2022/02/13 00:13:49;;;;;;;32.63;15.93;;;;;;;12.01;65.54;100989.81;5014670;28;20050;-80
2022/02/13 00:16:16;;;;;;;33.00;14.03;;;;;;;11.89;65.72;100977.22;5017689;28;20557;-76
2022/02/13 00:18:44;;;;;;;27.00;16.37;;;;;;;11.94;65.61;100980.88;5039953;28;20073;-82
2022/02/13 00:21:31;;;;;;;27.63;16.13;;;;;;;11.93;65.71;100990.41;5020410;28;20045;-81
2022/02/13 00:23:58;;;;;;;26.23;14.20;;;;;;;11.78;66.11;100967.94;5023999;28;20192;-81
2022/02/13 00:26:25;;;;;;;30.97;15.17;;;;;;;11.65;66.34;100951.69;5016674;28;20145;-78
2022/02/13 00:28:52;;;;;;;32.57;15.07;;;;;;;11.80;66.50;100982.50;5017532;28;20080;-76
2022/02/13 00:31:18;;;;;;;38.67;16.63;;;;;;;11.77;66.60;100972.72;5015973;28;20125;-75
2022/02/13 00:33:45;;;;;;;31.27;11.57;;;;;;;11.71;66.96;100972.97;5026374;28;20473;-80
2022/02/13 00:36:14;;;;;;;23.93;8.37;;;;;;;11.60;67.50;100969.34;5019855;28;20319;-89
2022/02/13 00:38:41;;;;;;;27.27;12.07;;;;;;;11.45;67.85;100953.34;5030215;28;20049;-79
2022/02/13 00:41:08;;;;;;;29.43;16.03;;;;;;;11.43;67.88;100951.97;5031698;28;20088;-77
2022/02/13 00:43:35;;;;;;;18.70;11.27;;;;;;;11.37;67.97;100951.09;5021204;28;20560;-83
2022/02/13 00:46:01;;;;;;;26.47;14.30;;;;;;;11.51;67.88;100969.03;5019875;28;20061;-85
2022/02/13 00:48:28;;;;;;;32.30;15.03;;;;;;;11.56;67.47;100960.66;5025044;28;20053;-85
2022/02/13 00:50:55;;;;;;;32.90;16.57;;;;;;;11.57;67.35;100967.91;5016383;28;20085;-84
2022/02/13 00:53:22;;;;;;;26.60;14.33;;;;;;;11.58;67.64;100961.19;5020515;28;20081;-84
2022/02/13 00:55:49;;;;;;;27.23;14.07;;;;;;;11.57;67.73;100961.50;5021141;28;20493;-86
2022/02/13 00:58:16;;;;;;;30.57;16.73;;;;;;;11.55;67.29;100953.38;5026898;28;20140;-84
2022/02/13 01:00:42;;;;;;;28.63;16.03;;;;;;;11.25;67.46;100897.41;5020955;28;20137;-85
2022/02/13 01:03:09;;;;;;;27.70;13.87;;;;;;;11.58;67.36;100949.19;5025054;28;20046;-85
2022/02/13 01:05:36;;;;;;;38.23;15.77;;;;;;;11.63;67.47;100947.25;5023257;28;20089;-88
2022/02/13 01:08:04;;;;;;;28.23;16.17;;;;;;;11.65;67.13;100943.31;5015953;28;20544;-84
2022/02/13 01:10:31;;;;;;;34.13;16.20;;;;;;;11.58;67.58;100941.63;5019065;28;20129;-86
2022/02/13 01:12:58;;;;;;;29.17;14.47;;;;;;;11.60;67.52;100942.19;5025976;28;20433;-85
2022/02/13 01:15:25;;;;;;;25.27;14.00;;;;;;;11.36;67.41;100894.34;5024344;28;20065;-82
2022/02/13 01:17:52;;;;;;;41.00;17.10;;;;;;;11.61;67.49;100935.47;5018654;28;20445;-83
2022/02/13 01:20:19;;;;;;;31.57;14.60;;;;;;;11.59;67.30;100926.53;5027455;28;20085;-84
2022/02/13 01:22:46;;;;;;;19.30;9.77;;;;;;;11.36;67.83;100897.13;5041926;28;20029;-83
2022/02/13 01:25:13;;;;;;;20.17;10.13;;;;;;;11.44;67.73;100912.53;5049353;28;20030;-84
2022/02/13 01:27:39;;;;;;;20.57;9.37;;;;;;;11.55;67.95;100936.56;5042868;28;20041;-86
2022/02/13 01:30:07;;;;;;;21.80;10.43;;;;;;;11.46;68.27;100929.03;5045398;28;20062;-85
2022/02/13 01:32:34;;;;;;;25.03;13.40;;;;;;;11.42;68.08;100914.78;5030184;28;20077;-85
2022/02/13 01:35:01;;;;;;;16.80;9.27;;;;;;;11.44;68.26;100923.72;5030862;28;20457;-82
2022/02/13 01:37:27;;;;;;;18.80;9.27;;;;;;;11.28;68.38;100903.28;5021526;28;20084;-84
2022/02/13 01:39:54;;;;;;;25.50;14.43;;;;;;;11.31;68.50;100915.84;5016834;28;20096;-71
2022/02/13 01:42:21;;;;;;;25.03;14.57;;;;;;;11.21;68.19;100896.25;5032680;28;20074;-73
2022/02/13 01:44:51;;;;;;;28.63;16.50;;;;;;;11.29;68.12;100904.13;5016565;28;20057;-73
2022/02/13 01:47:18;;;;;;;;;;;;;;;11.27;68.46;100917.53;5022199;28;20512;-72
2022/02/13 01:49:45;;;;;;;21.10;10.33;;;;;;;11.15;68.37;100904.66;5025754;28;20410;-72
2022/02/13 01:52:12;;;;;;;26.27;10.57;;;;;;;11.17;68.41;100906.31;5026942;28;20149;-72
2022/02/13 01:54:39;;;;;;;18.57;11.13;;;;;;;11.12;68.76;100910.78;5029286;28;20409;-73
2022/02/13 01:57:10;;;;;;;18.37;10.17;;;;;;;11.11;68.69;100897.94;5024557;28;20124;-73
2022/02/13 01:59:38;;;;;;;27.63;15.17;;;;;;;11.00;68.57;100885.03;5023120;28;20045;-72
2022/02/13 02:02:05;;;;;;;28.07;14.73;;;;;;;11.13;68.58;100906.88;5025017;28;20424;-73
2022/02/13 02:04:32;;;;;;;27.20;11.97;;;;;;;11.10;68.71;100901.84;5030530;28;20472;-73
2022/02/13 02:07:01;;;;;;;22.50;11.10;;;;;;;11.07;68.77;100894.00;5023123;28;20477;-73
2022/02/13 02:09:28;;;;;;;23.17;14.00;;;;;;;11.10;68.90;100896.25;5021651;28;20120;-78
2022/02/13 02:11:55;;;;;;;20.10;10.37;;;;;;;11.07;68.95;100888.41;5017417;28;20485;-78
2022/02/13 02:14:22;;;;;;;30.40;12.30;;;;;;;11.04;69.01;100891.78;5025406;28;20133;-78
2022/02/13 02:16:48;;;;;;;22.93;11.87;;;;;;;11.06;68.97;100883.94;5044274;28;20554;-78
2022/02/13 02:19:15;;;;;;;19.00;10.73;;;;;;;10.89;69.29;100870.19;5021795;28;20149;-83
2022/02/13 02:21:44;;;;;;;29.30;15.87;;;;;;;10.87;68.89;100850.09;5032071;28;20049;-84
2022/02/13 02:24:13;;;;;;;26.50;11.77;;;;;;;11.04;68.55;100863.81;5023892;28;20060;-84
2022/02/13 02:26:40;;;;;;;22.03;10.63;;;;;;;11.02;68.48;100854.03;5022412;28;20077;-83
2022/02/13 02:29:07;;;;;;;21.60;11.67;;;;;;;11.06;68.59;100878.34;5014678;28;20521;-76
2022/02/13 02:31:33;;;;;;;20.23;11.93;;;;;;;11.12;68.32;100866.06;5032334;28;20157;-77
2022/02/13 02:34:01;;;;;;;22.00;11.47;;;;;;;11.09;68.58;100861.03;5022720;28;20507;-77
2022/02/13 02:36:27;;;;;;;22.17;12.83;;;;;;;10.75;68.41;100821.56;5036270;28;20164;-78
2022/02/13 02:38:54;;;;;;;23.07;13.37;;;;;;;11.09;68.36;100863.81;5035899;28;20161;-78
2022/02/13 02:41:21;;;;;;;18.43;10.13;;;;;;;10.95;68.55;100847.88;5036480;28;20132;-77
2022/02/13 02:43:49;;;;;;;19.53;12.03;;;;;;;10.33;68.67;100746.31;5026350;28;20045;-85
2022/02/13 02:46:16;;;;;;;12.67;9.10;;;;;;;11.02;68.51;100849.28;5028049;28;20093;-77
2022/02/13 02:48:43;;;;;;;13.30;8.70;;;;;;;10.97;68.45;100838.06;5023776;28;20054;-77
2022/02/13 02:51:10;;;;;;;16.60;11.50;;;;;;;11.05;68.28;100848.72;5033267;28;20049;-76
2022/02/13 02:53:37;;;;;;;5.40;4.60;;;;;;;11.00;68.59;100845.91;5018688;28;20061;-75
2022/02/13 02:56:04;;;;;;;10.43;7.67;;;;;;;10.73;68.58;100789.41;5018611;28;20069;-76
2022/02/13 02:58:31;;;;;;;12.97;8.40;;;;;;;11.02;68.22;100840.06;5040429;28;20056;-81
2022/02/13 03:00:58;;;;;;;14.13;8.70;;;;;;;11.05;68.08;100831.13;5034945;28;20085;-80
2022/02/13 03:03:26;;;;;;;15.07;9.53;;;;;;;11.21;67.68;100846.78;5030873;28;20551;-79
2022/02/13 03:05:53;;;;;;;12.27;8.80;;;;;;;10.99;67.78;100805.13;5030612;28;20096;-71
2022/02/13 03:08:21;;;;;;;17.70;9.43;;;;;;;11.07;68.09;100824.13;5028391;28;20057;-69
2022/02/13 03:10:48;;;;;;;23.30;10.80;;;;;;;11.04;67.70;100802.34;5021448;28;20134;-69
2022/02/13 03:13:16;;;;;;;19.77;9.63;;;;;;;11.14;67.28;100812.66;5014562;28;20092;-70
2022/02/13 03:15:44;;;;;;;8.73;4.87;;;;;;;11.12;67.57;100832.53;5014279;28;20084;-70
2022/02/13 03:18:11;;;;;;;14.17;7.90;;;;;;;11.06;67.54;100827.22;5014920;28;20081;-70
2022/02/13 03:20:38;;;;;;;8.53;5.00;;;;;;;11.00;67.79;100822.72;5021763;28;20124;-71
2022/02/13 03:23:05;;;;;;;8.50;6.33;;;;;;;10.81;68.30;100817.66;5014693;28;20486;-71
2022/02/13 03:25:32;;;;;;;13.87;7.50;;;;;;;10.78;67.87;100804.25;5033893;28;20089;-85
2022/02/13 03:27:59;;;;;;;7.13;5.23;;;;;;;10.68;67.76;100793.88;5016253;28;20093;-85
2022/02/13 03:30:26;;;;;;;7.87;7.17;;;;;;;10.66;68.00;100795.25;5017087;28;20050;-85
2022/02/13 03:33:03;;;;;;;16.27;9.37;;;;;;;10.76;67.57;100805.63;5015749;28;20042;-86
2022/02/13 03:35:29;;;;;;;10.87;7.40;;;;;;;10.71;68.22;100814.00;5016787;28;20468;-82
2022/02/13 03:37:56;;;;;;;18.17;8.63;;;;;;;10.70;68.11;100801.13;5018417;28;20069;-82
2022/02/13 03:40:23;;;;;;;9.47;4.43;;;;;;;10.68;67.96;100793.88;5018627;28;20072;-83
2022/02/13 03:42:51;;;;;;;12.03;6.90;;;;;;;10.60;68.01;100791.63;5016615;28;20393;-83
2022/02/13 03:45:18;;;;;;;8.40;3.60;;;;;;;10.54;68.23;100778.78;5046222;28;20074;-82
2022/02/13 03:47:45;;;;;;;6.83;3.13;;;;;;;10.48;68.10;100776.22;5026133;28;20103;-80
2022/02/13 03:50:12;;;;;;;5.17;3.53;;;;;;;10.36;68.45;100760.56;5032466;28;20030;-83
2022/02/13 03:52:40;;;;;;;11.13;5.40;;;;;;;10.37;68.36;100762.25;5058614;28;20049;-80
2022/02/13 03:55:11;;;;;;;13.55;6.38;;;;;;;10.38;68.37;100763.06;5040519;28;20054;-79
2022/02/13 03:57:38;;;;;;;14.53;7.20;;;;;;;10.05;68.70;100726.09;5039471;28;20037;-79
2022/02/13 04:00:07;;;;;;;17.37;7.43;;;;;;;10.25;68.88;100756.00;5054863;28;20030;-77
2022/02/13 04:02:34;;;;;;;10.07;4.87;;;;;;;10.08;68.48;100722.75;5038155;28;20052;-75
2022/02/13 04:05:01;;;;;;;12.67;7.30;;;;;;;10.33;68.41;100758.31;5024404;28;20046;-72
2022/02/13 04:07:28;;;;;;;8.40;5.03;;;;;;;10.26;68.68;100760.53;5037988;28;20637;-69
2022/02/13 04:09:56;;;;;;;13.37;7.03;;;;;;;10.08;68.48;100733.91;5039215;28;20052;-72
2022/02/13 04:12:26;;;;;;;10.33;6.00;;;;;;;10.11;68.24;100735.31;5037726;28;20049;-70
2022/02/13 04:14:53;;;;;;;14.93;9.55;;;;;;;10.32;68.16;100761.38;5022099;28;20050;-75
2022/02/13 04:17:20;;;;;;;9.60;6.80;;;;;;;10.44;68.03;100775.94;5040997;28;20148;-74
2022/02/13 04:19:47;;;;;;;13.20;6.83;;;;;;;10.33;67.90;100751.91;5021007;28;20061;-73
2022/02/13 04:22:14;;;;;;;9.90;5.23;;;;;;;10.48;68.00;100773.44;5020039;28;20053;-75
2022/02/13 04:24:41;;;;;;;16.43;7.23;;;;;;;10.51;67.91;100770.94;5031958;28;20136;-79
2022/02/13 04:27:08;;;;;;;12.10;6.00;;;;;;;10.43;67.77;100763.94;5034837;28;20053;-78
2022/02/13 04:29:35;;;;;;;19.37;8.07;;;;;;;10.62;67.49;100767.03;5030599;28;20081;-77
2022/02/13 04:32:02;;;;;;;3.40;3.07;;;;;;;10.54;67.91;100762.00;5032856;28;20459;-84
2022/02/13 04:34:30;;;;;;;9.10;4.43;;;;;;;10.47;68.29;100757.81;5028125;28;20117;-76
2022/02/13 04:36:57;;;;;;;15.70;5.63;;;;;;;10.38;68.45;100749.13;5027012;28;20058;-73
2022/02/13 04:39:23;;;;;;;10.33;4.03;;;;;;;10.40;68.31;100744.13;5023589;28;20054;-74
2022/02/13 04:41:50;;;;;;;7.63;3.53;;;;;;;10.20;68.19;100708.56;5028472;28;20053;-80
2022/02/13 04:44:17;;;;;;;7.37;4.93;;;;;;;10.41;68.43;100740.19;5030643;28;20053;-78
2022/02/13 04:46:44;;;;;;;7.03;5.07;;;;;;;10.32;68.56;100728.72;5020552;28;20132;-94
2022/02/13 04:49:11;;;;;;;9.93;4.33;;;;;;;10.13;68.83;100719.16;5021387;28;20092;-84
2022/02/13 04:51:38;;;;;;;13.17;7.43;;;;;;;10.16;69.31;100725.03;5026514;28;20053;-80
2022/02/13 04:54:05;;;;;;;11.37;6.90;;;;;;;10.21;69.23;100730.59;5032147;28;20540;-79
2022/02/13 04:56:32;;;;;;;7.43;4.40;;;;;;;10.15;69.24;100722.47;5032203;28;20053;-74
2022/02/13 04:58:58;;;;;;;7.90;3.90;;;;;;;10.16;69.22;100725.03;5020017;28;20133;-75
2022/02/13 05:01:25;;;;;;;10.60;4.43;;;;;;;10.15;69.29;100712.19;5018109;28;20086;-73
2022/02/13 05:03:52;;;;;;;9.00;6.03;;;;;;;10.12;69.11;100690.41;5017269;28;20073;-72
2022/02/13 05:06:19;;;;;;;13.97;4.43;;;;;;;10.20;68.92;100698.22;5018842;28;20534;-73
2022/02/13 05:08:46;;;;;;;9.30;4.40;;;;;;;10.09;69.39;100692.91;5016239;28;20097;-74
2022/02/13 05:11:13;;;;;;;5.90;3.67;;;;;;;9.92;69.38;100670.81;5014536;28;20133;-74
2022/02/13 05:13:39;;;;;;;8.73;4.03;;;;;;;10.04;69.36;100688.13;5012257;28;20125;-73
2022/02/13 05:16:06;;;;;;;14.97;6.50;;;;;;;10.07;69.34;100687.59;5015491;28;20519;-74
2022/02/13 05:18:35;;;;;;;7.00;3.73;;;;;;;9.92;69.11;100663.28;5018568;28;20063;-73
2022/02/13 05:21:02;;;;;;;6.40;4.90;;;;;;;9.41;69.28;100579.41;5021845;28;20088;-73
2022/02/13 05:23:29;;;;;;;11.10;5.90;;;;;;;10.41;68.75;100709.50;5019807;28;20080;-74
2022/02/13 05:25:56;;;;;;;3.50;2.90;;;;;;;10.27;68.67;100686.84;5021927;28;20417;-74
2022/02/13 05:28:23;;;;;;;12.83;5.80;;;;;;;10.44;68.52;100712.56;5019367;28;20124;-74
2022/02/13 05:30:50;;;;;;;6.83;3.57;;;;;;;10.38;68.42;100704.44;5021347;28;20085;-75
2022/02/13 05:33:17;;;;;;;7.53;4.37;;;;;;;10.40;69.01;100702.22;5019951;28;20132;-75
2022/02/13 05:35:43;;;;;;;4.87;3.17;;;;;;;10.35;69.05;100716.16;5012593;28;20061;-75
2022/02/13 05:38:10;;;;;;;9.17;4.33;;;;;;;10.46;68.59;100723.47;5024769;28;20049;-74
2022/02/13 05:40:39;;;;;;;3.03;2.70;;;;;;;10.46;68.52;100709.50;5016794;28;20052;-75
2022/02/13 05:43:06;;;;;;;3.57;2.57;;;;;;;10.50;68.27;100712.59;5023624;28;20080;-72
2022/02/13 05:45:32;;;;;;;6.63;3.00;;;;;;;10.53;68.20;100721.25;5014996;28;20132;-70
2022/02/13 05:47:59;;;;;;;22.90;6.87;;;;;;;10.60;68.21;100713.44;5017599;28;20149;-70
2022/02/13 05:50:26;;;;;;;13.53;5.93;;;;;;;10.58;67.92;100710.06;5014734;28;20060;-71
2022/02/13 05:52:53;;;;;;;9.37;5.33;;;;;;;10.63;67.80;100712.91;5018652;28;20133;-71
2022/02/13 05:55:20;;;;;;;11.30;5.30;;;;;;;10.73;67.52;100714.00;5017117;28;20129;-70
2022/02/13 05:57:47;;;;;;;12.73;3.93;;;;;;;10.68;67.60;100718.47;5018572;28;20053;-71
2022/02/13 06:00:14;;;;;;;9.43;3.93;;;;;;;10.78;67.40;100702.84;5019493;28;20098;-70
2022/02/13 06:02:41;;;;;;;5.90;3.37;;;;;;;10.69;67.52;100702.53;5020278;28;20125;-73
2022/02/13 06:05:09;;;;;;;9.43;3.10;;;;;;;10.64;68.01;100703.38;5021213;28;20125;-77
2022/02/13 06:07:40;;;;;;;6.07;4.40;;;;;;;10.63;67.89;100695.28;5021117;28;20057;-72
2022/02/13 06:10:09;;;;;;;11.57;3.80;;;;;;;10.49;67.76;100661.47;5030187;28;20086;-78
2022/02/13 06:12:36;;;;;;;11.80;5.27;;;;;;;10.62;67.59;100669.31;5019706;28;20077;-75
2022/02/13 06:15:05;;;;;;;11.70;3.63;;;;;;;10.54;67.82;100655.06;5018837;28;20140;-75
2022/02/13 06:17:32;;;;;;;7.77;2.93;;;;;;;10.26;68.23;100629.34;5025973;28;20145;-79
2022/02/13 06:19:59;;;;;;;3.57;2.53;;;;;;;10.53;68.20;100672.91;5034937;28;20389;-69
2022/02/13 06:22:28;;;;;;;12.43;5.03;;;;;;;10.40;68.55;100657.56;5030159;28;20046;-71
2022/02/13 06:24:55;;;;;;;4.93;3.17;;;;;;;10.31;69.39;100671.22;5028281;28;20085;-71
2022/02/13 06:27:22;;;;;;;4.47;2.67;;;;;;;10.30;68.79;100643.59;5032273;28;20080;-73
2022/02/13 06:29:49;;;;;;;9.97;4.00;;;;;;;10.13;68.90;100616.72;5044135;28;20033;-81
2022/02/13 06:32:17;;;;;;;5.40;2.40;;;;;;;10.33;68.82;100648.63;5043855;28;20054;-81
2022/02/13 06:34:44;;;;;;;8.47;3.67;;;;;;;10.28;68.94;100632.69;5051275;28;20046;-78
2022/02/13 06:37:10;;;;;;;9.00;5.17;;;;;;;10.44;68.73;100641.94;5056945;28;20046;-81
2022/02/13 06:39:37;;;;;;;6.33;2.47;;;;;;;10.17;68.82;100611.44;5042296;28;20053;-77
2022/02/13 06:42:05;;;;;;;4.33;2.97;;;;;;;10.44;68.92;100661.47;5052914;28;20061;-80
2022/02/13 06:44:32;;;;;;;4.80;2.93;;;;;;;10.13;68.68;100580.47;5047350;28;20053;-83
2022/02/13 06:46:59;;;;;;;13.90;5.83;;;;;;;10.54;68.22;100619.59;5038061;28;20042;-78
2022/02/13 06:49:26;;;;;;;6.67;3.67;;;;;;;10.77;68.03;100656.44;5042582;28;20068;-77
2022/02/13 06:51:53;;;;;;;9.40;4.40;;;;;;;10.67;68.41;100652.56;5027675;28;20394;-72
2022/02/13 06:54:20;;;;;;;3.50;2.17;;;;;;;10.58;69.15;100636.63;5020895;28;20125;-74
2022/02/13 06:56:46;;;;;;;6.40;3.10;;;;;;;10.52;69.33;100629.38;5025911;28;20484;-74
2022/02/13 06:59:13;;;;;;;4.03;3.17;;;;;;;10.43;69.75;100629.94;5032249;28;20081;-72
2022/02/13 07:01:40;;;;;;;6.43;3.70;;;;;;;10.41;69.61;100603.41;5020446;28;20100;-76
2022/02/13 07:04:07;;;;;;;5.93;3.00;;;;;;;10.50;69.54;100618.50;5034142;28;20049;-78
2022/02/13 07:06:34;;;;;;;12.40;4.00;;;;;;;10.49;69.72;100616.78;5030976;28;20442;-72
2022/02/13 07:09:01;;;;;;;3.87;2.83;;;;;;;10.37;70.25;100621.81;5022472;28;20113;-75
2022/02/13 07:11:27;;;;;;;2.57;1.73;;;;;;;10.47;69.68;100624.63;5036139;28;20049;-76
2022/02/13 07:13:55;;;;;;;7.77;4.03;;;;;;;10.30;70.31;100608.13;5028776;28;20566;-75
2022/02/13 07:16:22;;;;;;;4.53;2.67;;;;;;;10.12;70.43;100589.94;5032102;28;20041;-82
2022/02/13 07:18:49;;;;;;;6.30;4.00;;;;;;;10.24;70.73;100619.53;5020657;28;20092;-76
2022/02/13 07:21:16;;;;;;;8.87;4.03;;;;;;;10.27;70.24;100596.69;5019937;28;20615;-82
2022/02/13 07:23:43;;;;;;;5.50;3.83;;;;;;;10.31;70.41;100617.34;5040529;28;20041;-77
2022/02/13 07:26:11;;;;;;;6.50;3.33;;;;;;;10.51;70.09;100638.88;5038974;28;20050;-76
2022/02/13 07:31:23;;;;;;;3.83;3.43;;;;;;;10.59;69.88;100643.88;5019310;28;20132;-70
2022/02/13 07:33:50;;;;;;;5.80;3.87;;;;;;;10.62;69.58;100637.75;5023694;28;20132;-76
2022/02/13 07:36:17;;;;;;;7.37;4.73;;;;;;;10.75;69.65;100653.13;5025169;28;20128;-73
2022/02/13 07:38:44;;;;;;;9.87;4.47;;;;;;;10.56;69.75;100610.94;5019703;28;20053;-73
2022/02/13 07:41:11;;;;;;;9.53;4.00;;;;;;;10.75;69.63;100640.00;5030632;28;20057;-80
2022/02/13 07:43:37;;;;;;;11.50;5.73;;;;;;;10.54;69.72;100602.84;5020213;28;20176;-83
2022/02/13 07:46:05;;;;;;;4.47;3.17;;;;;;;10.85;69.53;100630.78;5025216;28;20080;-82
2022/02/13 07:48:32;;;;;;;6.10;2.80;;;;;;;10.73;70.22;100624.63;5023113;28;20045;-82
2022/02/13 07:51:00;;;;;;;6.70;3.60;;;;;;;10.64;70.06;100614.03;5023873;28;20096;-82
2022/02/13 07:53:27;;;;;;;10.93;3.93;;;;;;;10.82;69.96;100636.91;5015569;28;20081;-82
2022/02/13 07:55:54;;;;;;;9.13;3.63;;;;;;;10.79;69.49;100615.94;5015238;28;20089;-81
2022/02/13 07:58:21;;;;;;;12.70;4.70;;;;;;;10.95;69.34;100633.56;5043127;28;20080;-82
2022/02/13 08:00:48;;;;;;;9.00;3.97;;;;;;;11.10;68.54;100639.09;5019884;28;20080;-81
2022/02/13 08:03:17;;;;;;;10.83;4.80;;;;;;;10.94;68.88;100606.75;5014021;28;20504;-82
2022/02/13 08:05:44;;;;;;;11.17;5.77;;;;;;;10.99;68.84;100615.09;5026503;28;20088;-82
2022/02/13 08:08:13;;;;;;;4.30;2.83;;;;;;;10.87;68.85;100592.19;5029073;28;20468;-79
2022/02/13 08:10:40;;;;;;;9.87;3.87;;;;;;;11.03;68.75;100604.19;5018280;28;20137;-75
2022/02/13 08:13:07;;;;;;;7.43;3.30;;;;;;;11.09;68.85;100626.25;5019504;28;20129;-78
2022/02/13 08:15:34;;;;;;;9.43;2.67;;;;;;;10.99;68.88;100603.91;5014996;28;20089;-77
2022/02/13 08:18:08;;;;;;;8.63;4.17;;;;;;;11.10;69.00;100602.78;5020493;28;20480;-76
2022/02/13 08:20:35;;;;;;;10.33;4.63;;;;;;;11.01;69.65;100598.91;5031155;28;20393;-85
2022/02/13 08:23:02;;;;;;;7.77;3.03;;;;;;;11.08;69.19;100573.47;5024680;28;20073;-86
2022/02/13 08:25:30;;;;;;;5.07;2.77;;;;;;;11.09;69.74;100598.31;5014971;28;20129;-83
2022/02/13 08:27:57;;;;;;;2.40;1.97;;;;;;;10.86;69.63;100565.38;5026879;28;20527;-85
2022/02/13 08:30:24;;;;;;;5.43;3.03;;;;;;;11.17;69.45;100594.09;5032679;28;20080;-87
2022/02/13 08:32:51;;;;;;;6.80;3.50;;;;;;;11.17;69.54;100593.25;5018492;28;20473;-85
2022/02/13 08:35:18;;;;;;;13.10;4.27;;;;;;;11.25;69.03;100587.94;5021903;28;20140;-71
2022/02/13 08:37:45;;;;;;;8.93;2.50;;;;;;;11.39;69.03;100607.75;5029204;28;20136;-69
2022/02/13 08:40:12;;;;;;;3.90;1.60;;;;;;;11.60;68.22;100591.72;5031273;28;20130;-71
2022/02/13 08:42:39;;;;;;;10.13;2.03;;;;;;;11.59;68.30;100570.47;5018634;28;20132;-70
2022/02/13 08:45:06;;;;;;;5.53;2.93;;;;;;;11.47;68.46;100545.63;5018471;28;20128;-68
2022/02/13 08:47:33;;;;;;;3.63;2.27;;;;;;;11.52;68.60;100565.19;5017754;28;20148;-70
2022/02/13 08:49:59;;;;;;;4.60;2.90;;;;;;;11.73;68.21;100591.09;5018014;28;20434;-70
2022/02/13 08:52:26;;;;;;;6.27;2.33;;;;;;;11.88;67.83;100576.22;5013330;28;20140;-69
2022/02/13 08:54:53;;;;;;;4.03;1.70;;;;;;;11.88;67.73;100573.41;5022506;28;20132;-70
2022/02/13 08:57:21;;;;;;;5.33;2.00;;;;;;;12.06;67.53;100581.13;5038690;28;20077;-69
2022/02/13 08:59:47;;;;;;;3.80;2.33;;;;;;;11.89;67.44;100555.50;5018955;28;20124;-70
2022/02/13 09:02:16;;;;;;;6.90;2.33;;;;;;;12.00;67.29;100559.91;5018406;28;20049;-69
2022/02/13 09:04:43;;;;;;;6.60;2.27;;;;;;;12.15;67.17;100563.72;5029617;28;20137;-70
2022/02/13 09:07:10;;;;;;;11.10;2.17;;;;;;;12.37;66.66;100566.91;5024914;28;20069;-70
2022/02/13 09:09:37;;;;;;;2.70;1.10;;;;;;;12.29;66.87;100553.53;5020377;28;20141;-70
2022/02/13 09:12:04;;;;;;;4.47;2.13;;;;;;;12.33;66.84;100565.81;5016110;28;20137;-69
2022/02/13 09:14:31;;;;;;;2.57;1.40;;;;;;;12.37;66.60;100580.06;5013453;28;20050;-70
2022/02/13 09:16:57;;;;;;;3.63;1.70;;;;;;;12.31;66.72;100579.31;5018510;28;20141;-69
2022/02/13 09:19:24;;;;;;;6.37;1.57;;;;;;;12.30;66.77;100564.44;5012847;28;20129;-70
2022/02/13 09:21:52;;;;;;;20.53;2.27;;;;;;;12.44;66.42;100564.59;5026800;28;20199;-69
2022/02/13 09:24:20;;;;;;;1.87;1.10;;;;;;;12.42;66.31;100563.25;5017083;28;20065;-70
2022/02/13 09:26:47;;;;;;;3.20;1.83;;;;;;;12.41;66.22;100576.41;5017197;28;20503;-70
2022/02/13 09:29:14;;;;;;;8.17;1.40;;;;;;;12.46;66.13;100548.34;5019018;28;20073;-70
2022/02/13 09:31:40;;;;;;;1.50;1.10;;;;;;;12.32;66.25;100569.75;5019412;28;20559;-70
2022/02/13 09:34:08;;;;;;;1.50;1.03;;;;;;;12.18;66.20;100554.75;5019950;28;20084;-70
2022/02/13 09:36:34;;;;;;;10.10;2.10;;;;;;;12.12;66.94;100553.13;5020108;28;20049;-71
2022/02/13 09:39:01;;;;;;;2.43;0.90;;;;;;;12.29;66.57;100570.34;5019176;28;20153;-69
2022/02/13 09:41:28;;;;;;;2.70;1.30;;;;;;;12.13;66.75;100550.00;5019337;28;20136;-70
2022/02/13 09:43:56;;;;;;;6.27;1.27;;;;;;;12.16;66.35;100537.41;5026816;28;20521;-70
2022/02/13 09:46:26;;;;;;;3.07;1.37;;;;;;;12.22;66.78;100558.63;5017591;28;20153;-70
2022/02/13 09:48:55;;;;;;;1.85;1.73;;;;;;;12.23;66.77;100557.50;5026070;28;20073;-71
2022/02/13 09:51:22;;;;;;;6.43;2.57;;;;;;;12.31;66.35;100568.09;5016590;28;20096;-73
2022/02/13 09:53:49;;;;;;;3.10;2.30;;;;;;;12.52;65.75;100563.16;5018443;28;20132;-71
2022/02/13 09:56:17;;;;;;;7.63;4.23;;;;;;;12.52;66.17;100585.56;5021057;28;20107;-73
2022/02/13 09:58:44;;;;;;;3.83;1.40;;;;;;;12.43;66.19;100579.75;5032398;28;20562;-72
2022/02/13 10:01:11;;;;;;;2.77;1.40;;;;;;;12.43;66.16;100592.91;5024043;28;20129;-70
2022/02/13 10:03:44;;;;;;;7.73;1.67;;;;;;;12.40;66.66;100593.50;5022661;28;20049;-71
2022/02/13 10:06:11;;;;;;;4.40;1.20;;;;;;;12.38;66.86;100585.41;5020122;28;20128;-71
2022/02/13 10:08:52;;;;;;;4.63;1.63;;;;;;;12.13;68.09;100578.00;5035758;28;20053;-71
2022/02/13 10:11:25;;;;;;;5.10;1.63;;;;;;;11.85;69.41;100587.97;5050705;28;20096;-71
2022/02/13 10:13:56;;;;;;;4.00;1.20;;;;;;;11.84;69.50;100605.91;5034611;28;20081;-71
2022/02/13 10:16:37;;;;;;;4.70;1.53;;;;;;;11.72;70.22;100595.00;5035665;28;20124;-70
2022/02/13 10:19:15;;;;;;;4.50;1.65;;;;;;;11.65;70.67;100588.88;5036193;28;20076;-71
2022/02/13 10:21:53;;;;;;;6.23;1.40;;;;;;;11.61;70.91;100588.63;5035601;28;20053;-71
2022/02/13 10:24:20;;;;;;;1.07;0.83;;;;;;;11.63;70.98;100586.38;5018648;28;20124;-71
2022/02/13 10:27:02;;;;;;;3.87;1.80;;;;;;;11.48;71.26;100544.50;5015741;28;20145;-70
2022/02/13 10:29:34;;;;;;;2.20;1.20;;;;;;;11.50;71.33;100578.59;5016114;28;20053;-71
2022/02/13 10:32:16;;;;;;;1.73;0.83;;;;;;;11.48;71.44;100572.44;5015700;28;20141;-72
2022/02/13 10:35:04;;;;;;;4.03;3.00;;;;;;;11.48;71.92;100568.81;5015361;28;20129;-71
2022/02/13 10:37:41;;;;;;;4.57;2.23;;;;;;;11.38;72.47;100572.50;5015714;28;20050;-71
2022/02/13 10:40:29;;;;;;;1.93;1.30;;;;;;;11.31;72.83;100552.41;5015520;28;20090;-71
2022/02/13 10:43:03;;;;;;;2.43;2.23;;;;;;;11.26;73.72;100567.25;5047585;28;20449;-70
2022/02/13 10:45:32;;;;;;;3.27;1.70;;;;;;;11.27;74.15;100570.88;5015324;28;20081;-71
2022/02/13 10:48:02;;;;;;;2.17;1.53;;;;;;;11.18;74.39;100572.56;5029985;28;20471;-71
2022/02/13 10:50:32;;;;;;;3.45;1.35;;;;;;;11.11;74.92;100554.16;5034908;28;20132;-71
2022/02/13 10:53:01;;;;;;;3.80;1.50;;;;;;;11.12;75.00;100572.59;5033679;28;20092;-71
2022/02/13 10:55:29;;;;;;;6.28;2.50;;;;;;;10.95;74.72;100519.00;5036545;28;20041;-71
2022/02/13 10:57:58;;;;;;;9.03;3.53;;;;;;;10.98;75.93;100501.66;5035357;28;20057;-71
2022/02/13 11:00:27;;;;;;;2.40;1.53;;;;;;;10.78;77.29;100462.63;5035077;28;20123;-70
2022/02/13 11:02:58;;;;;;;10.30;6.67;;;;;;;10.55;78.40;100475.25;5034991;28;20100;-70
2022/02/13 11:05:28;;;;;;;8.98;5.80;;;;;;;10.24;79.22;100464.09;5017800;28;20145;-71
2022/02/13 11:08:06;;;;;;;3.87;2.63;;;;;;;10.62;79.57;100549.22;5014960;28;20054;-72
2022/02/13 11:10:40;;;;;;;4.30;2.17;;;;;;;10.65;79.52;100536.66;5015003;28;20097;-71
2022/02/13 11:13:08;;;;;;;6.27;3.50;;;;;;;10.79;79.09;100534.13;5045478;28;20053;-70
2022/02/13 11:15:38;;;;;;;1.63;1.33;;;;;;;10.83;78.40;100515.66;5052099;28;20058;-71
2022/02/13 11:18:07;;;;;;;6.03;2.92;;;;;;;10.91;78.06;100532.69;5034636;28;20099;-72
2022/02/13 11:20:36;;;;;;;3.40;1.80;;;;;;;11.27;77.49;100538.16;5031645;28;20573;-71
2022/02/13 11:23:28;;;;;;;5.77;2.17;;;;;;;11.30;76.93;100545.97;5014559;28;20046;-71
2022/02/13 11:25:57;;;;;;;2.03;1.43;;;;;;;11.48;76.26;100549.25;5014440;28;20057;-71